createdAt,value
2023-01-28T00:01:50.376Z,6.35
2023-01-28T00:04:19.557Z,5.07
2023-01-28T00:06:48.415Z,6.85
2023-01-28T00:09:17.381Z,6.18
2023-01-28T00:11:46.366Z,5.00
2023-01-28T00:14:16.689Z,5.90
2023-01-28T00:16:46.531Z,5.30
2023-01-28T00:19:15.497Z,4.82
2023-01-28T00:21:44.340Z,5.15
2023-01-28T00:24:13.296Z,5.68
2023-01-28T00:26:42.339Z,5.85
2023-01-28T00:29:11.099Z,5.00
2023-01-28T00:31:41.774Z,4.75
2023-01-28T00:34:10.881Z,5.10
2023-01-28T00:36:43.124Z,5.22
2023-01-28T00:39:15.844Z,4.63
2023-01-28T00:41:44.772Z,4.47
2023-01-28T00:44:13.888Z,5.72
2023-01-28T00:46:44.047Z,5.75
2023-01-28T00:49:12.911Z,5.97
2023-01-28T00:51:43.248Z,5.15
2023-01-28T00:54:13.858Z,5.45
2023-01-28T00:56:42.781Z,8.43
2023-01-28T00:59:12.163Z,4.35
2023-01-28T01:01:41.035Z,4.55
2023-01-28T01:04:11.205Z,4.90
2023-01-28T01:06:42.149Z,6.38
2023-01-28T01:09:13.054Z,4.70
2023-01-28T01:11:42.869Z,4.93
2023-01-28T01:14:12.281Z,4.18
2023-01-28T01:16:42.252Z,4.20
2023-01-28T01:19:12.429Z,3.92
2023-01-28T01:21:41.218Z,4.75
2023-01-28T01:24:10.145Z,4.00
2023-01-28T01:26:39.146Z,5.75
2023-01-28T01:29:09.911Z,5.38
2023-01-28T01:31:38.980Z,3.60
2023-01-28T01:34:07.815Z,3.83
2023-01-28T01:36:38.017Z,3.97
2023-01-28T01:39:06.884Z,5.20
2023-01-28T01:41:35.632Z,4.40
2023-01-28T01:44:06.087Z,5.18
2023-01-28T01:46:39.512Z,4.60
2023-01-28T01:49:20.132Z,4.95
2023-01-28T01:51:55.594Z,4.75
2023-01-28T01:54:27.780Z,8.10
2023-01-28T01:57:00.138Z,5.10
2023-01-28T01:59:32.564Z,5.35
2023-01-28T02:02:05.087Z,7.18
2023-01-28T02:04:38.325Z,7.65
2023-01-28T02:07:10.345Z,7.20
2023-01-28T02:09:43.043Z,5.47
2023-01-28T02:12:15.743Z,5.63
2023-01-28T02:14:47.783Z,5.95
2023-01-28T02:17:17.548Z,5.85
2023-01-28T02:19:51.420Z,5.70
2023-01-28T02:22:57.597Z,4.93
2023-01-28T02:25:51.984Z,5.30
2023-01-28T02:28:35.793Z,6.63
2023-01-28T02:31:12.273Z,5.75
2023-01-28T02:33:46.144Z,8.02
2023-01-28T02:36:25.084Z,5.40
2023-01-28T02:38:57.184Z,5.15
2023-01-28T02:41:32.787Z,6.35
2023-01-28T02:44:05.240Z,5.28
2023-01-28T02:46:56.539Z,5.68
2023-01-28T02:49:30.485Z,6.97
2023-01-28T02:52:15.970Z,7.32
2023-01-28T02:54:53.536Z,6.47
2023-01-28T02:57:33.906Z,6.82
2023-01-28T03:00:11.487Z,8.52
2023-01-28T03:02:46.504Z,6.65
2023-01-28T03:05:22.379Z,7.05
2023-01-28T03:07:52.028Z,7.80
2023-01-28T03:10:24.553Z,6.13
2023-01-28T03:13:14.498Z,7.97
2023-01-28T03:16:06.361Z,6.43
2023-01-28T03:18:58.901Z,8.35
2023-01-28T03:21:50.623Z,7.00
2023-01-28T03:24:40.077Z,6.03
2023-01-28T03:27:32.883Z,5.07
2023-01-28T03:30:31.668Z,6.13
2023-01-28T03:33:22.915Z,6.47
2023-01-28T03:36:10.988Z,6.13
2023-01-28T03:38:43.755Z,7.55
2023-01-28T03:41:22.855Z,8.60
2023-01-28T03:43:53.511Z,6.57
2023-01-28T03:46:21.682Z,7.85
2023-01-28T03:48:51.921Z,11.70
2023-01-28T03:51:21.063Z,9.40
2023-01-28T03:53:49.860Z,8.18
2023-01-28T03:56:19.929Z,7.63
2023-01-28T03:58:52.839Z,9.45
2023-01-28T04:01:21.935Z,8.80
2023-01-28T04:03:52.877Z,9.02
2023-01-28T04:06:27.322Z,9.52
2023-01-28T04:09:14.477Z,8.75
2023-01-28T04:11:52.593Z,10.32
2023-01-28T04:14:29.711Z,9.07
2023-01-28T04:17:24.658Z,9.75
2023-01-28T04:19:54.927Z,8.18
2023-01-28T04:22:24.046Z,10.07
2023-01-28T04:24:53.084Z,8.02
2023-01-28T04:27:21.978Z,9.85
2023-01-28T04:29:51.828Z,9.38
2023-01-28T04:32:34.984Z,8.98
2023-01-28T04:35:10.590Z,9.90
2023-01-28T04:38:08.731Z,13.30
2023-01-28T04:41:00.710Z,9.00
2023-01-28T04:43:33.211Z,10.88
2023-01-28T04:46:20.539Z,9.05
2023-01-28T04:49:03.522Z,11.25
2023-01-28T04:51:48.239Z,9.82
2023-01-28T04:54:33.536Z,12.80
2023-01-28T04:57:04.913Z,10.20
2023-01-28T04:59:34.360Z,11.25
2023-01-28T05:02:03.926Z,9.93
2023-01-28T05:04:33.230Z,10.30
2023-01-28T05:07:07.312Z,10.95
2023-01-28T05:09:36.896Z,12.60
2023-01-28T05:12:06.164Z,10.85
2023-01-28T05:14:37.869Z,11.45
2023-01-28T05:17:09.017Z,11.35
2023-01-28T05:19:38.002Z,13.95
2023-01-28T05:22:13.248Z,11.13
2023-01-28T05:24:50.074Z,9.98
2023-01-28T05:27:19.186Z,10.40
2023-01-28T05:29:47.894Z,11.07
2023-01-28T05:32:17.322Z,9.95
2023-01-28T05:34:47.884Z,10.52
2023-01-28T05:37:18.494Z,10.15
2023-01-28T05:39:48.648Z,10.68
2023-01-28T05:42:20.803Z,8.93
2023-01-28T05:44:51.472Z,8.48
2023-01-28T05:47:44.819Z,8.68
2023-01-28T05:50:26.328Z,9.68
2023-01-28T05:53:14.810Z,9.32
2023-01-28T05:55:49.643Z,10.50
2023-01-28T05:58:19.509Z,10.88
2023-01-28T06:00:48.625Z,11.45
2023-01-28T06:03:21.514Z,12.27
2023-01-28T06:05:50.486Z,10.25
2023-01-28T06:08:20.865Z,8.63
2023-01-28T06:10:50.031Z,10.48
2023-01-28T06:13:19.057Z,9.80
2023-01-28T06:16:06.868Z,7.82
2023-01-28T06:18:58.845Z,8.77
2023-01-28T06:21:30.057Z,10.13
2023-01-28T06:24:01.303Z,8.07
2023-01-28T06:26:32.196Z,8.70
2023-01-28T06:29:01.152Z,8.07
2023-01-28T06:31:30.035Z,9.77
2023-01-28T06:33:58.984Z,8.90
2023-01-28T06:36:27.945Z,8.15
2023-01-28T06:38:57.423Z,8.82
2023-01-28T06:41:27.663Z,8.63
2023-01-28T06:43:56.470Z,8.57
2023-01-28T06:46:25.766Z,10.13
2023-01-28T06:48:54.549Z,9.73
2023-01-28T06:51:25.647Z,11.07
2023-01-28T06:53:54.961Z,7.78
2023-01-28T06:56:23.774Z,8.48
2023-01-28T06:58:54.090Z,8.13
2023-01-28T07:01:22.902Z,7.75
2023-01-28T07:03:51.685Z,8.15
2023-01-28T07:06:20.561Z,8.73
2023-01-28T07:08:49.483Z,8.35
2023-01-28T07:11:18.476Z,10.75
2023-01-28T07:13:47.670Z,9.75
2023-01-28T07:16:18.349Z,11.13
2023-01-28T07:18:49.171Z,8.52
2023-01-28T07:21:18.420Z,8.93
2023-01-28T07:23:47.543Z,8.05
2023-01-28T07:26:16.741Z,8.80
2023-01-28T07:28:45.553Z,8.00
2023-01-28T07:31:14.369Z,9.38
2023-01-28T07:33:45.253Z,9.45
2023-01-28T07:36:14.008Z,9.13
2023-01-28T07:38:43.152Z,10.02
2023-01-28T07:41:12.056Z,10.25
2023-01-28T07:43:40.917Z,8.85
2023-01-28T07:46:09.865Z,8.00
2023-01-28T07:48:38.632Z,9.23
2023-01-28T07:51:09.003Z,8.80
2023-01-28T07:53:37.923Z,9.93
2023-01-28T07:56:07.240Z,10.52
2023-01-28T07:58:35.949Z,8.50
2023-01-28T08:01:05.103Z,11.18
2023-01-28T08:03:36.985Z,9.48
2023-01-28T08:06:06.510Z,7.80
2023-01-28T08:08:36.881Z,8.30
2023-01-28T08:11:08.895Z,10.63
2023-01-28T08:13:37.766Z,14.45
2023-01-28T08:16:07.894Z,8.75
2023-01-28T08:18:36.592Z,10.05
2023-01-28T08:21:05.574Z,10.10
2023-01-28T08:23:35.904Z,9.23
2023-01-28T08:26:04.673Z,9.00
2023-01-28T08:28:33.709Z,9.35
2023-01-28T08:31:02.942Z,9.23
2023-01-28T08:33:31.947Z,7.88
2023-01-28T08:36:04.538Z,9.05
2023-01-28T08:38:33.705Z,8.88
2023-01-28T08:41:03.857Z,8.52
2023-01-28T08:43:32.712Z,8.73
2023-01-28T08:46:01.481Z,8.25
2023-01-28T08:48:30.373Z,9.48
2023-01-28T08:51:00.694Z,8.43
2023-01-28T08:53:29.864Z,10.05
2023-01-28T08:55:58.731Z,8.95
2023-01-28T08:58:28.757Z,8.55
2023-01-28T09:00:57.638Z,7.60
2023-01-28T09:03:32.231Z,8.85
2023-01-28T09:06:04.184Z,9.23
2023-01-28T09:08:33.235Z,7.35
2023-01-28T09:11:02.154Z,10.32
2023-01-28T09:13:32.340Z,8.07
2023-01-28T09:16:01.114Z,9.52
2023-01-28T09:18:29.814Z,8.10
2023-01-28T09:20:58.766Z,7.60
2023-01-28T09:23:27.757Z,9.63
2023-01-28T09:26:01.821Z,7.38
2023-01-28T09:28:32.130Z,7.50
2023-01-28T09:31:05.176Z,8.40
2023-01-28T09:33:34.699Z,7.50
2023-01-28T09:36:05.111Z,8.65
2023-01-28T09:38:35.138Z,8.60
2023-01-28T09:41:12.626Z,7.78
2023-01-28T09:44:15.681Z,7.20
2023-01-28T09:46:45.832Z,7.95
2023-01-28T09:49:22.043Z,7.25
2023-01-28T09:51:54.828Z,12.73
2023-01-28T09:54:35.948Z,7.80
2023-01-28T09:57:09.601Z,9.10
2023-01-28T09:59:39.889Z,12.05
2023-01-28T10:02:29.565Z,9.25
2023-01-28T10:05:03.754Z,9.95
2023-01-28T10:07:40.718Z,8.98
2023-01-28T10:10:15.076Z,9.13
2023-01-28T10:13:02.738Z,10.02
2023-01-28T10:15:54.000Z,11.20
2023-01-28T10:18:32.109Z,10.20
2023-01-28T10:21:08.965Z,8.75
2023-01-28T10:23:47.335Z,9.38
2023-01-28T10:26:23.955Z,9.82
2023-01-28T10:28:57.113Z,9.80
2023-01-28T10:31:33.277Z,7.22
2023-01-28T10:34:04.433Z,9.50
2023-01-28T10:36:33.470Z,9.32
2023-01-28T10:39:02.273Z,9.55
2023-01-28T10:41:31.236Z,9.38
2023-01-28T10:44:00.110Z,7.25
2023-01-28T10:46:33.547Z,9.88
2023-01-28T10:49:08.268Z,7.95
2023-01-28T10:51:39.195Z,9.82
2023-01-28T10:54:20.392Z,8.02
2023-01-28T10:56:50.490Z,9.02
2023-01-28T10:59:27.077Z,8.00
2023-01-28T11:02:00.826Z,7.43
2023-01-28T11:04:31.696Z,9.30
2023-01-28T11:07:03.001Z,10.93
2023-01-28T11:09:33.392Z,7.65
2023-01-28T11:12:13.038Z,7.63
2023-01-28T11:14:51.910Z,8.38
2023-01-28T11:17:24.846Z,7.80
2023-01-28T11:19:54.881Z,7.85
2023-01-28T11:22:29.464Z,8.18
2023-01-28T11:24:58.189Z,11.75
2023-01-28T11:27:30.657Z,9.85
2023-01-28T11:30:03.424Z,8.98
2023-01-28T11:32:33.797Z,7.95
2023-01-28T11:35:02.697Z,7.40
2023-01-28T11:37:32.047Z,7.88
2023-01-28T11:40:19.143Z,8.57
2023-01-28T11:42:51.973Z,8.30
2023-01-28T11:45:25.645Z,7.43
2023-01-28T11:48:10.551Z,8.50
2023-01-28T11:50:48.527Z,11.20
2023-01-28T11:53:47.287Z,9.18
2023-01-28T11:56:32.678Z,8.27
2023-01-28T11:59:11.623Z,8.88
2023-01-28T12:01:48.684Z,9.55
2023-01-28T12:04:26.809Z,7.20
2023-01-28T12:07:19.349Z,8.82
2023-01-28T12:09:56.347Z,7.35
2023-01-28T12:12:50.347Z,7.90
2023-01-28T12:15:48.385Z,9.25
2023-01-28T12:18:28.183Z,7.45
2023-01-28T12:21:08.446Z,8.07
2023-01-28T12:23:55.187Z,8.02
2023-01-28T12:26:35.668Z,10.20
2023-01-28T12:29:19.040Z,10.40
2023-01-28T12:32:03.822Z,11.27
2023-01-28T12:35:08.916Z,10.70
2023-01-28T12:37:49.409Z,11.73
2023-01-28T12:40:43.784Z,12.10
2023-01-28T12:43:20.008Z,11.18
2023-01-28T12:45:52.993Z,10.57
2023-01-28T12:48:28.481Z,11.38
2023-01-28T12:51:03.289Z,11.55
2023-01-28T12:53:41.872Z,11.98
2023-01-28T12:56:16.919Z,11.55
2023-01-28T12:58:53.263Z,8.02
2023-01-28T13:01:27.593Z,10.35
2023-01-28T13:04:02.886Z,12.85
2023-01-28T13:06:34.802Z,13.75
2023-01-28T13:09:14.872Z,11.35
2023-01-28T13:11:44.292Z,12.75
2023-01-28T13:14:14.972Z,9.65
2023-01-28T13:16:43.661Z,10.63
2023-01-28T13:19:24.946Z,10.15
2023-01-28T13:21:53.957Z,10.43
2023-01-28T13:24:34.314Z,10.10
2023-01-28T13:27:13.910Z,12.38
2023-01-28T13:29:43.880Z,12.18
2023-01-28T13:32:34.017Z,12.32
2023-01-28T13:35:05.983Z,14.55
2023-01-28T13:37:38.931Z,14.02
2023-01-28T13:40:24.898Z,12.45
2023-01-28T13:43:02.096Z,13.77
2023-01-28T13:45:32.158Z,12.10
2023-01-28T13:48:16.957Z,11.55
2023-01-28T13:50:46.323Z,11.75
2023-01-28T13:53:23.550Z,11.18
2023-01-28T13:55:58.506Z,13.15
2023-01-28T13:58:54.403Z,10.93
2023-01-28T14:01:47.599Z,10.23
2023-01-28T14:04:43.658Z,10.27
2023-01-28T14:07:37.110Z,9.80
2023-01-28T14:10:35.017Z,9.95
2023-01-28T14:13:25.531Z,8.18
2023-01-28T14:16:05.847Z,11.07
2023-01-28T14:18:38.160Z,9.50
2023-01-28T14:21:17.080Z,9.30
2023-01-28T14:23:48.771Z,9.52
2023-01-28T14:26:33.350Z,9.43
2023-01-28T14:29:15.372Z,8.90
2023-01-28T14:31:44.282Z,9.00
2023-01-28T14:34:21.101Z,10.80
2023-01-28T14:36:51.047Z,11.50
2023-01-28T14:39:22.521Z,10.82
2023-01-28T14:41:53.435Z,12.38
2023-01-28T14:44:30.496Z,10.45
2023-01-28T14:47:19.404Z,10.85
2023-01-28T14:50:03.929Z,10.75
2023-01-28T14:53:04.989Z,10.85
2023-01-28T14:55:42.862Z,12.75
2023-01-28T14:58:17.824Z,10.57
2023-01-28T15:00:56.665Z,13.73
2023-01-28T15:03:26.371Z,11.88
2023-01-28T15:06:07.125Z,11.45
2023-01-28T15:08:36.000Z,11.20
2023-01-28T15:11:07.412Z,12.13
2023-01-28T15:13:40.842Z,9.57
2023-01-28T15:16:17.847Z,14.57
2023-01-28T15:18:47.363Z,8.70
2023-01-28T15:21:21.126Z,14.07
2023-01-28T15:23:53.956Z,11.35
2023-01-28T15:26:25.649Z,10.75
2023-01-28T15:28:55.317Z,8.45
2023-01-28T15:31:28.293Z,7.95
2023-01-28T15:33:58.846Z,9.48
2023-01-28T15:36:27.691Z,9.02
2023-01-28T15:38:57.039Z,9.10
2023-01-28T15:41:29.832Z,11.18
2023-01-28T15:43:58.615Z,9.60
2023-01-28T15:46:28.547Z,8.50
2023-01-28T15:49:00.370Z,13.77
2023-01-28T15:51:32.077Z,10.65
2023-01-28T15:54:04.456Z,10.85
2023-01-28T15:56:33.752Z,13.85
2023-01-28T15:59:22.702Z,13.98
2023-01-28T16:01:53.171Z,14.98
2023-01-28T16:04:25.797Z,12.48
2023-01-28T16:06:57.369Z,12.32
2023-01-28T16:09:29.346Z,12.52
2023-01-28T16:12:04.017Z,12.00
2023-01-28T16:14:40.156Z,11.68
2023-01-28T16:17:12.294Z,12.10
2023-01-28T16:19:43.584Z,14.07
2023-01-28T16:22:21.408Z,13.70
2023-01-28T16:24:52.870Z,14.68
2023-01-28T16:27:23.157Z,14.82
2023-01-28T16:29:51.927Z,13.20
2023-01-28T16:32:35.352Z,12.57
2023-01-28T16:35:05.853Z,13.85
2023-01-28T16:37:34.482Z,12.60
2023-01-28T16:40:03.717Z,15.80
2023-01-28T16:42:33.125Z,18.85
2023-01-28T16:45:04.094Z,17.17
2023-01-28T16:47:34.371Z,17.63
2023-01-28T16:50:03.371Z,17.83
2023-01-28T16:52:32.121Z,18.42
2023-01-28T16:55:00.809Z,18.45
2023-01-28T16:57:36.854Z,16.50
2023-01-28T17:00:07.176Z,18.58
2023-01-28T17:02:37.075Z,17.45
2023-01-28T17:05:06.212Z,17.35
2023-01-28T17:07:35.033Z,21.08
2023-01-28T17:10:04.030Z,19.40
2023-01-28T17:12:32.690Z,20.15
2023-01-28T17:15:01.287Z,20.45
2023-01-28T17:17:29.902Z,17.00
2023-01-28T17:19:59.973Z,19.95
2023-01-28T17:22:28.655Z,21.67
2023-01-28T17:24:57.309Z,21.92
2023-01-28T17:27:25.867Z,21.48
2023-01-28T17:29:54.632Z,18.92
2023-01-28T17:32:23.262Z,19.63
2023-01-28T17:34:51.855Z,18.90
2023-01-28T17:37:21.771Z,20.27
2023-01-28T17:39:50.254Z,23.77
2023-01-28T17:42:18.871Z,20.77
2023-01-28T17:44:47.424Z,22.10
2023-01-28T17:47:16.159Z,22.85
2023-01-28T17:49:44.787Z,20.25
2023-01-28T17:52:13.547Z,23.05
2023-01-28T17:54:43.798Z,19.88
2023-01-28T17:57:12.319Z,20.67
2023-01-28T17:59:41.002Z,23.15
2023-01-28T18:02:11.835Z,22.75
2023-01-28T18:04:41.271Z,22.00
2023-01-28T18:07:11.831Z,23.02
2023-01-28T18:09:41.693Z,20.67
2023-01-28T18:12:13.853Z,18.35
2023-01-28T18:14:42.633Z,19.75
2023-01-28T18:17:12.478Z,25.00
2023-01-28T18:19:41.017Z,23.15
2023-01-28T18:22:09.577Z,23.05
2023-01-28T18:24:38.145Z,23.75
2023-01-28T18:27:06.761Z,24.58
2023-01-28T18:29:36.691Z,22.40
2023-01-28T18:32:06.407Z,24.80
2023-01-28T18:34:35.017Z,24.35
2023-01-28T18:37:06.605Z,23.48
2023-01-28T18:39:39.801Z,24.08
2023-01-28T18:42:08.841Z,21.70
2023-01-28T18:44:38.849Z,25.15
2023-01-28T18:47:07.504Z,25.25
2023-01-28T18:49:36.205Z,26.35
2023-01-28T18:52:04.869Z,24.88
2023-01-28T18:54:33.669Z,26.77
2023-01-28T18:57:02.388Z,27.92
2023-01-28T18:59:31.029Z,27.90
2023-01-28T19:02:01.886Z,25.88
2023-01-28T19:04:30.658Z,30.83
2023-01-28T19:06:59.399Z,27.52
2023-01-28T19:09:28.096Z,25.63
2023-01-28T19:11:56.754Z,30.55
2023-01-28T19:14:25.447Z,29.83
2023-01-28T19:16:54.005Z,29.73
2023-01-28T19:19:23.920Z,29.98
2023-01-28T19:21:52.933Z,32.17
2023-01-28T19:24:21.810Z,30.02
2023-01-28T19:26:50.475Z,31.83
2023-01-28T19:29:19.627Z,31.83
2023-01-28T19:31:49.427Z,31.67
2023-01-28T19:34:18.545Z,32.70
2023-01-28T19:36:48.492Z,31.58
2023-01-28T19:39:18.471Z,32.67
2023-01-28T19:41:47.081Z,30.60
2023-01-28T19:44:15.630Z,36.47
2023-01-28T19:46:44.253Z,39.88
2023-01-28T19:49:16.218Z,33.58
2023-01-28T19:51:45.294Z,33.55
2023-01-28T19:54:15.492Z,37.80
2023-01-28T19:56:44.256Z,37.47
2023-01-28T19:59:15.028Z,35.53
2023-01-28T20:01:43.778Z,37.75
2023-01-28T20:04:13.022Z,37.20
2023-01-28T20:06:41.731Z,41.75
2023-01-28T20:09:17.839Z,42.03
2023-01-28T20:11:46.609Z,38.42
2023-01-28T20:14:16.090Z,42.45
2023-01-28T20:16:44.862Z,38.50
2023-01-28T20:19:16.573Z,38.63
2023-01-28T20:21:46.182Z,37.72
2023-01-28T20:24:16.743Z,41.78
2023-01-28T20:26:46.111Z,43.05
2023-01-28T20:29:17.689Z,43.50
2023-01-28T20:31:54.718Z,46.60
2023-01-28T20:34:29.749Z,44.33
2023-01-28T20:36:58.462Z,44.70
2023-01-28T20:39:28.474Z,46.33
2023-01-28T20:41:57.141Z,44.80
2023-01-28T20:44:26.681Z,45.85
2023-01-28T20:46:55.281Z,43.22
2023-01-28T20:49:23.864Z,45.70
2023-01-28T20:51:52.390Z,44.50
2023-01-28T20:54:21.388Z,45.85
2023-01-28T20:56:51.817Z,47.90
2023-01-28T20:59:20.460Z,48.35
2023-01-28T21:01:49.371Z,46.03
2023-01-28T21:04:20.532Z,43.58
2023-01-28T21:06:49.091Z,48.60
2023-01-28T21:09:17.797Z,48.58
2023-01-28T21:11:46.475Z,49.78
2023-01-28T21:14:17.277Z,51.03
2023-01-28T21:16:47.256Z,52.47
2023-01-28T21:19:16.339Z,47.70
2023-01-28T21:21:46.096Z,49.97
2023-01-28T21:24:14.938Z,48.80
2023-01-28T21:26:43.702Z,45.53
2023-01-28T21:29:15.362Z,48.55
2023-01-28T21:31:45.660Z,46.83
2023-01-28T21:34:14.529Z,51.55
2023-01-28T21:36:43.625Z,48.97
2023-01-28T21:39:12.338Z,52.13
2023-01-28T21:41:41.219Z,51.03
2023-01-28T21:44:12.973Z,54.88
2023-01-28T21:46:41.702Z,51.17
2023-01-28T21:49:12.608Z,48.92
2023-01-28T21:51:46.184Z,52.35
2023-01-28T21:54:17.175Z,51.58
2023-01-28T21:56:46.504Z,51.10
2023-01-28T21:59:32.543Z,48.72
2023-01-28T22:02:02.831Z,50.45
2023-01-28T22:04:34.646Z,46.75
2023-01-28T22:07:04.712Z,56.13
2023-01-28T22:09:34.634Z,55.92
2023-01-28T22:12:05.159Z,53.15
2023-01-28T22:14:34.099Z,54.35
2023-01-28T22:17:02.875Z,48.40
2023-01-28T22:19:32.857Z,50.53
2023-01-28T22:22:01.873Z,49.13
2023-01-28T22:24:31.322Z,50.63
2023-01-28T22:26:59.915Z,53.97
2023-01-28T22:29:28.770Z,49.30
2023-01-28T22:31:57.552Z,52.10
2023-01-28T22:34:26.517Z,49.10
2023-01-28T22:36:56.642Z,50.00
2023-01-28T22:39:25.435Z,51.05
2023-01-28T22:41:54.328Z,48.28
2023-01-28T22:44:23.326Z,53.17
2023-01-28T22:46:52.286Z,54.30
2023-01-28T22:49:22.185Z,53.22
2023-01-28T22:51:51.110Z,51.03
2023-01-28T22:54:21.421Z,51.58
2023-01-28T22:56:50.261Z,49.13
2023-01-28T22:59:19.311Z,50.38
2023-01-28T23:01:48.060Z,53.20
2023-01-28T23:04:16.816Z,49.83
2023-01-28T23:06:45.599Z,53.80
2023-01-28T23:09:14.488Z,52.53
2023-01-28T23:11:44.694Z,55.17
2023-01-28T23:14:30.694Z,52.67
2023-01-28T23:17:16.586Z,54.08
2023-01-28T23:20:03.081Z,55.33
2023-01-28T23:22:52.482Z,55.03
2023-01-28T23:25:23.544Z,57.27
2023-01-28T23:27:53.720Z,51.80
2023-01-28T23:30:25.233Z,54.03
2023-01-28T23:32:58.979Z,55.78
2023-01-28T23:35:27.914Z,49.63
2023-01-28T23:37:56.982Z,49.90
2023-01-28T23:40:27.265Z,51.80
2023-01-28T23:42:58.302Z,50.37
2023-01-28T23:45:27.155Z,53.67
2023-01-28T23:47:56.058Z,54.70
2023-01-28T23:50:24.988Z,51.25
2023-01-28T23:52:53.705Z,54.85
2023-01-28T23:55:22.516Z,53.17
2023-01-28T23:57:53.357Z,54.40
